createdAt,value
2019-03-12T00:02:26.351Z,2.70
2019-03-12T00:04:56.266Z,2.30
2019-03-12T00:07:26.223Z,2.90
2019-03-12T00:09:56.126Z,2.90
2019-03-12T00:12:26.072Z,2.60
2019-03-12T00:14:55.989Z,3.40
2019-03-12T00:17:25.966Z,2.90
2019-03-12T00:19:55.889Z,3.50
2019-03-12T00:22:25.816Z,3.37
2019-03-12T00:24:55.726Z,3.87
2019-03-12T00:27:25.748Z,3.63
2019-03-12T00:29:55.670Z,3.43
2019-03-12T00:32:25.623Z,3.70
2019-03-12T00:34:55.530Z,3.30
2019-03-12T00:37:25.502Z,3.90
2019-03-12T00:39:55.434Z,3.67
2019-03-12T00:42:25.393Z,4.70
2019-03-12T00:44:55.309Z,3.97
2019-03-12T00:47:25.329Z,3.80
2019-03-12T00:49:55.318Z,4.70
2019-03-12T00:52:25.340Z,4.60
2019-03-12T00:54:55.264Z,3.77
2019-03-12T00:57:25.279Z,3.50
2019-03-12T00:59:56.518Z,3.70
2019-03-12T01:02:26.596Z,3.50
2019-03-12T01:04:56.609Z,3.63
2019-03-12T01:07:26.543Z,3.37
2019-03-12T01:09:56.448Z,3.80
2019-03-12T01:12:26.459Z,3.93
2019-03-12T01:14:56.542Z,3.43
2019-03-12T01:17:27.305Z,4.07
2019-03-12T01:19:56.872Z,5.40
2019-03-12T01:22:26.673Z,4.40
2019-03-12T01:24:56.597Z,3.70
2019-03-12T01:27:26.532Z,4.07
2019-03-12T01:29:56.453Z,4.40
2019-03-12T01:32:26.473Z,4.30
2019-03-12T01:34:56.372Z,3.80
2019-03-12T01:37:26.303Z,4.13
2019-03-12T01:39:56.231Z,4.63
2019-03-12T01:42:26.192Z,3.90
2019-03-12T01:44:56.087Z,4.27
2019-03-12T01:47:26.049Z,4.17
2019-03-12T01:49:56.024Z,4.77
2019-03-12T01:52:26.100Z,4.20
2019-03-12T01:54:56.047Z,4.50
2019-03-12T01:57:25.975Z,4.23
2019-03-12T01:59:55.898Z,4.53
2019-03-12T02:02:25.839Z,3.97
2019-03-12T02:04:55.735Z,3.90
2019-03-12T02:07:25.682Z,4.30
2019-03-12T02:09:55.585Z,4.60
2019-03-12T02:12:25.517Z,4.07
2019-03-12T02:14:55.558Z,4.70
2019-03-12T02:17:25.484Z,4.20
2019-03-12T02:19:55.493Z,3.70
2019-03-12T02:22:25.432Z,4.10
2019-03-12T02:24:55.381Z,3.73
2019-03-12T02:27:25.339Z,3.23
2019-03-12T02:29:55.223Z,3.53
2019-03-12T02:32:25.199Z,3.30
2019-03-12T02:34:55.250Z,3.13
2019-03-12T02:37:25.268Z,3.57
2019-03-12T02:39:55.340Z,3.80
2019-03-12T02:42:25.242Z,3.90
2019-03-12T02:44:55.146Z,3.30
2019-03-12T02:47:25.086Z,3.63
2019-03-12T02:49:55.025Z,3.63
2019-03-12T02:52:25.056Z,2.90
2019-03-12T02:54:55.087Z,3.27
2019-03-12T02:57:25.110Z,3.40
2019-03-12T02:59:55.107Z,3.20
2019-03-12T03:02:25.050Z,2.80
2019-03-12T03:04:54.980Z,3.03
2019-03-12T03:07:42.542Z,3.00
2019-03-12T03:10:14.511Z,3.40
2019-03-12T03:12:44.446Z,3.07
2019-03-12T03:15:17.229Z,3.73
2019-03-12T03:17:47.179Z,3.00
2019-03-12T03:20:17.181Z,3.83
2019-03-12T03:22:47.135Z,3.70
2019-03-12T03:25:17.166Z,3.50
2019-03-12T03:27:47.132Z,3.53
2019-03-12T03:30:19.405Z,3.27
2019-03-12T03:32:49.300Z,3.37
2019-03-12T03:35:19.203Z,4.50
2019-03-12T03:37:49.232Z,4.10
2019-03-12T03:40:20.147Z,3.20
2019-03-12T03:42:50.166Z,3.87
2019-03-12T03:45:20.097Z,4.40
2019-03-12T03:47:50.491Z,3.50
2019-03-12T03:50:20.423Z,3.53
2019-03-12T03:52:50.346Z,3.53
2019-03-12T03:55:20.303Z,4.00
2019-03-12T03:57:50.230Z,4.30
2019-03-12T04:00:21.180Z,3.70
2019-03-12T04:02:51.110Z,3.10
2019-03-12T04:05:21.525Z,3.30
2019-03-12T04:07:51.435Z,2.90
2019-03-12T04:10:21.480Z,4.10
2019-03-12T04:12:51.394Z,3.67
2019-03-12T04:15:21.424Z,5.20
2019-03-12T04:17:51.330Z,3.70
2019-03-12T04:20:21.275Z,3.23
2019-03-12T04:22:51.293Z,4.13
2019-03-12T04:25:21.364Z,3.23
2019-03-12T04:27:51.274Z,4.33
2019-03-12T04:30:21.208Z,4.30
2019-03-12T04:32:51.211Z,4.70
2019-03-12T04:35:21.954Z,4.73
2019-03-12T04:37:52.015Z,4.63
2019-03-12T04:40:21.966Z,3.70
2019-03-12T04:42:51.908Z,4.10
2019-03-12T04:45:21.932Z,4.40
2019-03-12T04:47:51.925Z,4.20
2019-03-12T04:50:21.877Z,4.50
2019-03-12T04:52:51.969Z,5.47
2019-03-12T04:55:21.912Z,4.70
2019-03-12T04:57:51.926Z,4.03
2019-03-12T05:00:21.857Z,5.30
2019-03-12T05:02:51.779Z,5.00
2019-03-12T05:05:21.781Z,5.50
2019-03-12T05:07:51.688Z,6.10
2019-03-12T05:10:21.666Z,5.00
2019-03-12T05:12:51.572Z,5.87
2019-03-12T05:15:21.514Z,5.60
2019-03-12T05:17:51.444Z,5.90
2019-03-12T05:20:21.486Z,5.80
2019-03-12T05:22:51.390Z,5.70
2019-03-12T05:25:21.316Z,6.07
2019-03-12T05:27:51.230Z,5.13
2019-03-12T05:30:21.183Z,5.47
2019-03-12T05:32:51.097Z,6.37
2019-03-12T05:35:21.214Z,4.57
2019-03-12T05:37:51.141Z,5.70
2019-03-12T05:40:21.178Z,5.57
2019-03-12T05:42:51.090Z,5.80
2019-03-12T05:45:21.043Z,5.40
2019-03-12T05:47:50.965Z,4.53
2019-03-12T05:50:20.908Z,5.07
2019-03-12T05:52:50.831Z,4.33
2019-03-12T05:55:21.458Z,4.87
2019-03-12T05:57:51.364Z,5.97
2019-03-12T06:00:22.321Z,5.00
2019-03-12T06:02:52.229Z,6.07
2019-03-12T06:05:22.360Z,5.37
2019-03-12T06:07:55.286Z,6.30
2019-03-12T06:10:23.997Z,6.30
2019-03-12T06:12:54.005Z,5.77
2019-03-12T06:15:23.934Z,7.07
2019-03-12T06:17:53.868Z,7.53
2019-03-12T06:20:23.816Z,6.17
2019-03-12T06:22:53.731Z,7.00
2019-03-12T06:25:23.662Z,6.73
2019-03-12T06:27:53.665Z,7.40
2019-03-12T06:30:25.918Z,6.70
2019-03-12T06:33:04.284Z,6.40
2019-03-12T06:35:54.303Z,5.90
2019-03-12T06:38:34.324Z,6.03
2019-03-12T06:41:09.910Z,5.47
2019-03-12T06:44:10.808Z,6.20
2019-03-12T06:46:51.525Z,5.30
2019-03-12T06:49:33.595Z,5.27
2019-03-12T06:52:37.793Z,4.37
2019-03-12T06:55:33.022Z,7.87
2019-03-12T06:58:28.125Z,6.27
2019-03-12T07:01:08.776Z,5.67
2019-03-12T07:03:47.041Z,5.27
2019-03-12T07:06:39.294Z,4.47
2019-03-12T07:09:22.656Z,3.73
2019-03-12T07:11:59.461Z,4.37
2019-03-12T07:14:34.075Z,3.83
2019-03-12T07:17:08.625Z,4.77
2019-03-12T07:19:59.701Z,2.93
2019-03-12T07:22:47.545Z,3.73
2019-03-12T07:25:37.495Z,3.10
2019-03-12T07:28:26.502Z,3.20
2019-03-12T07:31:21.798Z,3.00
2019-03-12T07:34:20.015Z,3.40
2019-03-12T07:37:11.818Z,3.73
2019-03-12T07:40:06.605Z,2.40
2019-03-12T07:43:01.217Z,2.60
2019-03-12T07:45:35.830Z,2.83
2019-03-12T07:48:15.606Z,3.70
2019-03-12T07:50:53.191Z,3.00
2019-03-12T07:53:55.050Z,2.93
2019-03-12T07:56:33.254Z,2.97
2019-03-12T07:59:13.911Z,3.60
2019-03-12T08:01:54.089Z,3.83
2019-03-12T08:04:49.182Z,3.60
2019-03-12T08:07:44.268Z,3.03
2019-03-12T08:10:28.622Z,2.80
2019-03-12T08:13:17.588Z,2.80
2019-03-12T08:15:53.231Z,3.80
2019-03-12T08:18:29.515Z,3.20
2019-03-12T08:21:27.636Z,3.37
2019-03-12T08:24:08.675Z,3.27
2019-03-12T08:26:45.028Z,3.70
2019-03-12T08:29:33.984Z,3.50
2019-03-12T08:32:09.036Z,4.67
2019-03-12T08:35:04.630Z,4.87
2019-03-12T08:37:50.049Z,4.30
2019-03-12T08:40:52.654Z,4.83
2019-03-12T08:43:44.947Z,3.83
2019-03-12T08:46:36.274Z,3.97
2019-03-12T08:49:12.974Z,4.97
2019-03-12T08:51:57.026Z,6.03
2019-03-12T08:54:54.222Z,5.13
2019-03-12T08:57:42.376Z,5.60
2019-03-12T09:00:31.639Z,5.60
2019-03-12T09:03:29.485Z,5.80
2019-03-12T09:06:18.436Z,5.57
2019-03-12T09:09:07.406Z,5.47
2019-03-12T09:12:02.224Z,5.97
2019-03-12T09:14:50.690Z,5.57
2019-03-12T09:17:38.295Z,5.17
2019-03-12T09:20:26.050Z,5.40
2019-03-12T09:23:13.411Z,5.30
2019-03-12T09:26:01.646Z,5.80
2019-03-12T09:28:45.364Z,4.80
2019-03-12T09:31:37.113Z,6.33
2019-03-12T09:34:28.861Z,4.23
2019-03-12T09:37:36.231Z,5.23
2019-03-12T09:40:25.290Z,6.37
2019-03-12T09:43:20.410Z,5.63
2019-03-12T09:46:00.427Z,5.93
2019-03-12T09:48:54.833Z,6.50
2019-03-12T09:51:35.364Z,6.00
2019-03-12T09:54:22.018Z,5.27
2019-03-12T09:57:08.273Z,6.33
2019-03-12T09:59:57.251Z,5.07
2019-03-12T10:02:52.065Z,5.00
2019-03-12T10:05:39.925Z,4.23
2019-03-12T10:08:17.076Z,4.70
2019-03-12T10:11:27.061Z,4.50
2019-03-12T10:14:12.775Z,4.83
2019-03-12T10:17:04.557Z,5.17
2019-03-12T10:19:51.258Z,4.80
2019-03-12T10:22:38.075Z,6.70
2019-03-12T10:25:39.377Z,4.70
2019-03-12T10:28:31.136Z,4.20
2019-03-12T10:31:20.090Z,4.10
2019-03-12T10:34:14.999Z,4.30
2019-03-12T10:37:11.951Z,4.80
2019-03-12T10:40:17.377Z,4.50
2019-03-12T10:43:15.015Z,4.30
2019-03-12T10:45:59.221Z,4.50
2019-03-12T10:48:30.362Z,4.00
2019-03-12T10:51:00.361Z,4.53
2019-03-12T10:53:32.373Z,3.63
2019-03-12T10:56:02.272Z,3.23
2019-03-12T10:58:32.225Z,4.50
2019-03-12T11:01:02.149Z,4.10
2019-03-12T11:03:32.077Z,3.17
2019-03-12T11:06:02.132Z,4.10
2019-03-12T11:08:32.157Z,3.20
2019-03-12T11:11:02.138Z,3.47
2019-03-12T11:13:31.683Z,3.37
2019-03-12T11:16:01.516Z,3.70
2019-03-12T11:18:31.486Z,3.60
2019-03-12T11:21:01.412Z,3.30
2019-03-12T11:23:31.397Z,3.37
2019-03-12T11:26:01.302Z,2.93
2019-03-12T11:28:31.310Z,3.17
2019-03-12T11:31:01.224Z,3.83
2019-03-12T11:33:31.196Z,3.90
2019-03-12T11:36:01.177Z,3.50
2019-03-12T11:38:31.179Z,3.07
2019-03-12T11:41:01.180Z,3.83
2019-03-12T11:43:31.463Z,3.50
2019-03-12T11:46:01.494Z,4.47
2019-03-12T11:48:31.416Z,3.60
2019-03-12T11:51:01.379Z,3.87
2019-03-12T11:53:31.377Z,3.87
2019-03-12T11:56:01.300Z,3.10
2019-03-12T11:58:31.365Z,2.97
2019-03-12T12:01:03.960Z,3.90
2019-03-12T12:03:34.248Z,4.27
2019-03-12T12:06:05.066Z,3.60
2019-03-12T12:08:35.099Z,2.97
2019-03-12T12:11:05.099Z,3.97
2019-03-12T12:13:35.095Z,3.17
2019-03-12T12:16:05.016Z,2.90
2019-03-12T12:18:34.938Z,3.70
2019-03-12T12:21:04.873Z,3.30
2019-03-12T12:23:34.779Z,3.73
2019-03-12T12:26:04.716Z,3.33
2019-03-12T12:28:34.697Z,2.87
2019-03-12T12:31:04.902Z,3.03
2019-03-12T12:33:34.890Z,3.10
2019-03-12T12:36:04.764Z,3.40
2019-03-12T12:38:34.674Z,2.80
2019-03-12T12:41:04.612Z,3.40
2019-03-12T12:43:34.520Z,2.97
2019-03-12T12:46:04.449Z,3.20
2019-03-12T12:48:33.946Z,2.77
2019-03-12T12:51:03.957Z,2.33
2019-03-12T12:53:34.168Z,2.90
2019-03-12T12:56:04.125Z,3.83
2019-03-12T12:58:34.113Z,2.63
2019-03-12T13:01:04.044Z,2.80
2019-03-12T13:03:34.036Z,3.23
2019-03-12T13:06:04.003Z,2.60
2019-03-12T13:08:33.930Z,3.90
2019-03-12T13:11:03.948Z,2.60
2019-03-12T13:13:34.808Z,2.83
2019-03-12T13:16:04.828Z,3.40
2019-03-12T13:18:34.735Z,3.10
2019-03-12T13:21:04.690Z,2.60
2019-03-12T13:23:36.188Z,2.30
2019-03-12T13:26:06.241Z,2.80
2019-03-12T13:28:36.155Z,2.53
2019-03-12T13:31:06.093Z,2.27
2019-03-12T13:33:36.096Z,2.80
2019-03-12T13:36:09.707Z,2.23
2019-03-12T13:38:45.684Z,2.50
2019-03-12T13:41:11.309Z,2.67
2019-03-12T13:43:41.205Z,3.20
2019-03-12T13:46:11.322Z,2.80
2019-03-12T13:48:41.553Z,2.93
2019-03-12T13:51:11.536Z,2.67
2019-03-12T13:53:41.589Z,2.20
2019-03-12T13:56:11.537Z,2.50
2019-03-12T13:58:41.456Z,2.33
2019-03-12T14:01:11.385Z,2.80
2019-03-12T14:03:41.298Z,2.10
2019-03-12T14:06:11.288Z,2.70
2019-03-12T14:08:41.237Z,2.97
2019-03-12T14:11:11.168Z,2.40
2019-03-12T14:13:41.164Z,2.50
2019-03-12T14:16:11.093Z,2.43
2019-03-12T14:18:41.088Z,2.20
2019-03-12T14:21:13.653Z,3.27
2019-03-12T14:23:53.691Z,3.00
2019-03-12T14:26:23.630Z,2.40
2019-03-12T14:28:53.566Z,2.87
2019-03-12T14:31:26.585Z,3.33
2019-03-12T14:33:56.568Z,2.70
2019-03-12T14:36:26.508Z,2.20
2019-03-12T14:38:56.538Z,3.70
2019-03-12T14:41:26.497Z,1.93
2019-03-12T14:43:56.468Z,2.47
2019-03-12T14:46:26.530Z,4.30
2019-03-12T14:48:58.675Z,3.27
2019-03-12T14:51:41.638Z,3.10
2019-03-12T14:54:11.635Z,3.10
2019-03-12T14:56:41.578Z,2.40
2019-03-12T14:59:11.507Z,2.90
2019-03-12T15:01:41.537Z,1.90
2019-03-12T15:04:11.451Z,3.63
2019-03-12T15:06:41.374Z,2.60
2019-03-12T15:09:13.773Z,2.57
2019-03-12T15:11:43.699Z,1.73
2019-03-12T15:14:13.630Z,2.60
2019-03-12T15:16:43.577Z,2.53
2019-03-12T15:19:13.487Z,2.23
2019-03-12T15:21:43.461Z,1.80
2019-03-12T15:24:13.424Z,2.30
2019-03-12T15:26:43.392Z,2.20
2019-03-12T15:29:13.310Z,3.03
2019-03-12T15:31:43.261Z,3.67
2019-03-12T15:34:13.191Z,2.47
2019-03-12T15:36:45.335Z,2.00
2019-03-12T15:39:14.737Z,1.87
2019-03-12T15:41:44.778Z,1.70
2019-03-12T15:44:14.778Z,3.80
2019-03-12T15:46:48.161Z,2.63
2019-03-12T15:49:18.077Z,2.30
2019-03-12T15:51:48.010Z,2.63
2019-03-12T15:54:18.009Z,2.97
2019-03-12T15:56:47.933Z,2.30
2019-03-12T15:59:18.608Z,2.30
2019-03-12T16:01:48.613Z,2.17
2019-03-12T16:04:18.534Z,2.30
2019-03-12T16:07:00.684Z,2.97
2019-03-12T16:09:20.110Z,2.03
2019-03-12T16:11:50.045Z,2.73
2019-03-12T16:14:19.968Z,2.67
2019-03-12T16:16:49.991Z,2.90
2019-03-12T16:19:20.100Z,1.50
2019-03-12T16:21:50.054Z,1.77
2019-03-12T16:24:19.979Z,2.23
2019-03-12T16:26:50.204Z,2.27
2019-03-12T16:29:20.338Z,2.57
2019-03-12T16:31:50.382Z,1.63
2019-03-12T16:34:20.382Z,2.60
2019-03-12T16:36:50.391Z,2.10
2019-03-12T16:39:20.387Z,2.00
2019-03-12T16:41:50.500Z,2.10
2019-03-12T16:44:20.448Z,2.13
2019-03-12T16:46:50.392Z,2.20
2019-03-12T16:49:20.315Z,2.60
2019-03-12T16:51:50.311Z,2.23
2019-03-12T16:54:21.342Z,1.90
2019-03-12T16:56:51.461Z,1.93
2019-03-12T16:59:21.923Z,2.43
2019-03-12T17:01:54.730Z,1.57
2019-03-12T17:04:24.730Z,1.50
2019-03-12T17:06:54.636Z,2.10
2019-03-12T17:09:24.648Z,1.57
2019-03-12T17:11:59.651Z,1.67
2019-03-12T17:14:38.824Z,1.57
2019-03-12T17:17:01.237Z,2.30
2019-03-12T17:19:31.270Z,1.70
2019-03-12T17:22:01.182Z,2.97
2019-03-12T17:24:31.138Z,1.40
2019-03-12T17:27:01.080Z,2.47
2019-03-12T17:29:31.281Z,1.60
2019-03-12T17:32:01.229Z,2.20
2019-03-12T17:34:35.788Z,2.10
2019-03-12T17:37:03.115Z,2.33
2019-03-12T17:39:33.597Z,2.10
2019-03-12T17:42:03.590Z,2.13
2019-03-12T17:44:33.519Z,1.97
2019-03-12T17:47:03.431Z,1.53
2019-03-12T17:49:33.668Z,1.93
2019-03-12T17:52:04.122Z,2.27
2019-03-12T17:54:34.113Z,1.80
2019-03-12T17:57:05.212Z,1.60
2019-03-12T17:59:35.647Z,2.07
2019-03-12T18:02:06.296Z,1.80
2019-03-12T18:04:37.397Z,1.83
2019-03-12T18:07:07.390Z,2.60
2019-03-12T18:09:37.405Z,1.90
2019-03-12T18:12:07.718Z,1.80
2019-03-12T18:14:37.684Z,1.90
2019-03-12T18:17:07.635Z,1.97
2019-03-12T18:19:37.656Z,1.93
2019-03-12T18:22:07.582Z,2.27
2019-03-12T18:24:37.588Z,1.90
2019-03-12T18:27:07.857Z,1.87
2019-03-12T18:29:38.052Z,2.40
2019-03-12T18:32:07.955Z,2.23
2019-03-12T18:34:37.911Z,1.30
2019-03-12T18:37:08.519Z,1.40
2019-03-12T18:39:38.654Z,1.77
2019-03-12T18:42:08.661Z,1.60
2019-03-12T18:44:38.603Z,1.40
2019-03-12T18:47:08.555Z,1.27
2019-03-12T18:49:38.761Z,1.73
2019-03-12T18:52:09.061Z,1.90
2019-03-12T18:54:41.429Z,2.10
2019-03-12T18:57:11.417Z,1.90
2019-03-12T18:59:42.186Z,1.23
2019-03-12T19:02:12.132Z,1.70
2019-03-12T19:04:42.154Z,2.40
2019-03-12T19:07:13.313Z,1.60
2019-03-12T19:09:43.763Z,2.00
2019-03-12T19:12:13.765Z,1.80
2019-03-12T19:14:43.992Z,1.90
2019-03-12T19:17:14.376Z,1.93
2019-03-12T19:19:44.379Z,1.87
2019-03-12T19:22:14.306Z,1.67
2019-03-12T19:24:44.254Z,2.17
2019-03-12T19:27:14.194Z,1.80
2019-03-12T19:29:44.206Z,1.43
2019-03-12T19:32:22.825Z,2.33
2019-03-12T19:34:52.779Z,1.73
2019-03-12T19:37:22.764Z,1.60
2019-03-12T19:39:52.715Z,1.30
2019-03-12T19:42:22.818Z,1.87
2019-03-12T19:44:53.362Z,1.97
2019-03-12T19:47:23.394Z,2.70
2019-03-12T19:49:53.563Z,1.80
2019-03-12T19:52:23.086Z,1.40
2019-03-12T19:54:53.030Z,1.70
2019-03-12T19:57:22.938Z,2.10
2019-03-12T19:59:52.929Z,1.80
2019-03-12T20:02:23.278Z,1.63
2019-03-12T20:04:53.225Z,1.60
2019-03-12T20:07:23.141Z,2.03
2019-03-12T20:10:13.669Z,2.00
2019-03-12T20:13:04.648Z,2.00
2019-03-12T20:16:33.354Z,1.50
2019-03-12T20:19:33.355Z,2.37
2019-03-12T20:22:53.930Z,1.90
2019-03-12T20:26:06.999Z,1.50
2019-03-12T20:29:05.839Z,2.20
2019-03-12T20:32:13.024Z,1.80
2019-03-12T20:35:19.038Z,1.30
2019-03-12T20:38:36.361Z,1.83
2019-03-12T20:41:49.383Z,2.30
2019-03-12T20:45:06.747Z,1.60
2019-03-12T20:48:22.930Z,1.93
2019-03-12T20:51:44.966Z,1.87
2019-03-12T20:54:48.458Z,1.97
2019-03-12T20:58:04.589Z,1.47
2019-03-12T21:01:01.408Z,1.70
2019-03-12T21:04:12.971Z,1.60
2019-03-12T21:07:45.731Z,1.53
2019-03-12T21:10:52.467Z,1.80
2019-03-12T21:14:09.148Z,2.30
2019-03-12T21:17:18.726Z,1.30
2019-03-12T21:20:24.889Z,1.23
2019-03-12T21:23:26.031Z,1.70
2019-03-12T21:26:38.368Z,1.80
2019-03-12T21:29:24.834Z,1.80
2019-03-12T21:31:54.780Z,1.90
2019-03-12T21:34:24.695Z,1.60
2019-03-12T21:36:54.621Z,1.50
2019-03-12T21:39:24.613Z,1.90
2019-03-12T21:41:54.562Z,1.80
2019-03-12T21:44:24.388Z,1.93
2019-03-12T21:46:54.548Z,1.63
2019-03-12T21:49:24.579Z,1.53
2019-03-12T21:51:54.517Z,1.70
2019-03-12T21:54:24.443Z,2.20
2019-03-12T21:56:54.367Z,1.60
2019-03-12T21:59:24.274Z,2.03
2019-03-12T22:01:54.281Z,1.77
2019-03-12T22:04:24.184Z,1.73
2019-03-12T22:06:54.127Z,1.47
2019-03-12T22:09:24.121Z,1.87
2019-03-12T22:11:54.043Z,2.30
2019-03-12T22:14:24.079Z,1.70
2019-03-12T22:16:57.386Z,1.60
2019-03-12T22:19:27.313Z,1.93
2019-03-12T22:22:08.774Z,1.60
2019-03-12T22:24:38.772Z,1.60
2019-03-12T22:27:08.722Z,1.63
2019-03-12T22:29:38.718Z,2.10
2019-03-12T22:32:08.734Z,1.77
2019-03-12T22:34:38.653Z,1.83
2019-03-12T22:37:08.685Z,2.13
2019-03-12T22:39:38.683Z,1.90
2019-03-12T22:42:08.634Z,1.70
2019-03-12T22:44:38.639Z,1.90
2019-03-12T22:47:08.573Z,1.83
2019-03-12T22:49:38.469Z,1.60
2019-03-12T22:52:08.407Z,1.83
2019-03-12T22:54:38.449Z,1.60
2019-03-12T22:57:08.385Z,1.80
2019-03-12T22:59:38.356Z,1.73
2019-03-12T23:02:08.309Z,1.77
2019-03-12T23:04:38.322Z,1.80
2019-03-12T23:07:08.254Z,1.80
2019-03-12T23:09:38.178Z,2.10
2019-03-12T23:12:08.088Z,2.20
2019-03-12T23:14:38.002Z,1.80
2019-03-12T23:17:08.025Z,1.70
2019-03-12T23:19:38.028Z,1.73
2019-03-12T23:22:08.031Z,1.90
2019-03-12T23:24:37.929Z,2.37
2019-03-12T23:27:07.867Z,1.90
2019-03-12T23:29:38.021Z,1.70
2019-03-12T23:32:08.028Z,1.90
2019-03-12T23:34:37.948Z,1.97
2019-03-12T23:37:08.075Z,1.80
2019-03-12T23:39:37.983Z,1.83
2019-03-12T23:42:08.008Z,1.90
2019-03-12T23:44:37.930Z,2.27
2019-03-12T23:47:07.872Z,2.10
2019-03-12T23:49:37.936Z,2.27
2019-03-12T23:52:07.944Z,2.03
2019-03-12T23:54:37.937Z,2.30
2019-03-12T23:57:07.919Z,2.00
2019-03-12T23:59:37.822Z,2.40
